createdAt,value
2018-10-01T00:00:58.148Z,12.56
2018-10-01T00:01:57.841Z,12.56
2018-10-01T00:02:57.939Z,12.56
2018-10-01T00:03:58.008Z,12.63
2018-10-01T00:04:58.105Z,12.63
2018-10-01T00:05:58.229Z,12.63
2018-10-01T00:06:57.902Z,12.63
2018-10-01T00:07:58.100Z,12.63
2018-10-01T00:08:57.892Z,12.63
2018-10-01T00:09:57.972Z,12.63
2018-10-01T00:10:57.843Z,12.63
2018-10-01T00:11:57.911Z,12.63
2018-10-01T00:12:57.924Z,12.63
2018-10-01T00:13:57.796Z,12.63
2018-10-01T00:14:57.924Z,12.69
2018-10-01T00:15:57.892Z,12.69
2018-10-01T00:16:57.823Z,12.63
2018-10-01T00:17:58.085Z,12.69
2018-10-01T00:18:58.116Z,12.69
2018-10-01T00:19:57.835Z,12.69
2018-10-01T00:20:57.811Z,12.63
2018-10-01T00:21:58.643Z,12.69
2018-10-01T00:22:58.206Z,12.69
2018-10-01T00:23:57.813Z,12.69
2018-10-01T00:24:57.885Z,12.69
2018-10-01T00:25:57.805Z,12.69
2018-10-01T00:26:57.800Z,12.69
2018-10-01T00:27:57.872Z,12.69
2018-10-01T00:28:57.872Z,12.69
2018-10-01T00:29:58.168Z,12.69
2018-10-01T00:30:57.963Z,12.69
2018-10-01T00:31:57.880Z,12.69
2018-10-01T00:32:57.814Z,12.69
2018-10-01T00:33:58.187Z,12.69
2018-10-01T00:34:57.791Z,12.69
2018-10-01T00:35:57.899Z,12.69
2018-10-01T00:36:57.818Z,12.69
2018-10-01T00:37:57.796Z,12.63
2018-10-01T00:38:57.790Z,12.69
2018-10-01T00:39:57.802Z,12.63
2018-10-01T00:40:57.871Z,12.63
2018-10-01T00:41:57.789Z,12.63
2018-10-01T00:42:57.764Z,12.56
2018-10-01T00:43:58.156Z,12.56
2018-10-01T00:44:57.788Z,12.56
2018-10-01T00:45:57.828Z,12.56
2018-10-01T00:46:57.760Z,12.5
2018-10-01T00:47:57.759Z,12.56
2018-10-01T00:48:57.761Z,12.56
2018-10-01T00:49:58.080Z,12.5
2018-10-01T00:50:57.803Z,12.56
2018-10-01T00:51:57.751Z,12.5
2018-10-01T00:52:57.822Z,12.56
2018-10-01T00:53:57.801Z,12.5
2018-10-01T00:54:57.768Z,12.5
2018-10-01T00:55:57.733Z,12.5
2018-10-01T00:56:57.758Z,12.5
2018-10-01T00:57:58.121Z,12.56
2018-10-01T00:58:57.741Z,12.56
2018-10-01T00:59:57.767Z,12.56
2018-10-01T01:00:57.820Z,12.56
2018-10-01T01:01:57.866Z,12.56
2018-10-01T01:02:57.835Z,12.56
2018-10-01T01:03:57.797Z,12.5
2018-10-01T01:04:57.788Z,12.56
2018-10-01T01:05:57.765Z,12.5
2018-10-01T01:06:57.739Z,12.56
2018-10-01T01:07:57.771Z,12.56
2018-10-01T01:08:58.061Z,12.56
2018-10-01T01:09:58.079Z,12.5
2018-10-01T01:10:57.897Z,12.5
2018-10-01T01:11:57.990Z,12.56
2018-10-01T01:12:58.138Z,12.5
2018-10-01T01:13:57.946Z,12.56
2018-10-01T01:14:57.787Z,12.5
2018-10-01T01:15:57.726Z,12.44
2018-10-01T01:16:57.833Z,12.44
2018-10-01T01:17:57.841Z,12.44
2018-10-01T01:18:57.958Z,12.44
2018-10-01T01:19:57.752Z,12.31
2018-10-01T01:20:58.029Z,12.31
2018-10-01T01:21:57.753Z,12.25
2018-10-01T01:22:57.844Z,12.19
2018-10-01T01:23:57.714Z,12.19
2018-10-01T01:24:57.724Z,12.13
2018-10-01T01:25:57.916Z,12.13
2018-10-01T01:26:57.747Z,12.06
2018-10-01T01:27:57.881Z,12
2018-10-01T01:28:57.770Z,11.94
2018-10-01T01:29:57.729Z,12
2018-10-01T01:30:58.538Z,12
2018-10-01T01:31:57.742Z,12
2018-10-01T01:32:57.967Z,12
2018-10-01T01:33:57.727Z,11.94
2018-10-01T01:34:57.828Z,12
2018-10-01T01:35:57.771Z,12
2018-10-01T01:36:57.688Z,12
2018-10-01T01:37:57.820Z,12
2018-10-01T01:38:57.679Z,12
2018-10-01T01:39:57.772Z,12.06
2018-10-01T01:40:57.704Z,12.06
2018-10-01T01:41:57.719Z,12.06
2018-10-01T01:42:58.044Z,12.06
2018-10-01T01:43:57.713Z,12.13
2018-10-01T01:44:57.749Z,12.13
2018-10-01T01:45:57.666Z,12.19
2018-10-01T01:46:57.774Z,12.13
2018-10-01T01:47:57.726Z,12.13
2018-10-01T01:48:57.708Z,12.13
2018-10-01T01:49:57.692Z,12.19
2018-10-01T01:50:57.765Z,12.13
2018-10-01T01:51:57.726Z,12.13
2018-10-01T01:52:57.663Z,12.19
2018-10-01T01:53:57.666Z,12.13
2018-10-01T01:54:57.832Z,12.19
2018-10-01T01:55:57.653Z,12.19
2018-10-01T01:56:57.830Z,12.13
2018-10-01T01:57:57.738Z,12.19
2018-10-01T01:58:57.734Z,12.13
2018-10-01T01:59:58.104Z,12.19
2018-10-01T02:00:57.680Z,12.19
2018-10-01T02:01:57.713Z,12.19
2018-10-01T02:02:58.066Z,12.19
2018-10-01T02:03:57.732Z,12.13
2018-10-01T02:04:57.685Z,12.13
2018-10-01T02:05:57.724Z,12.06
2018-10-01T02:06:57.736Z,12.13
2018-10-01T02:07:57.652Z,12.06
2018-10-01T02:08:57.662Z,12.13
2018-10-01T02:09:57.734Z,12.13
2018-10-01T02:10:57.707Z,12.06
2018-10-01T02:11:57.865Z,12.13
2018-10-01T02:12:57.665Z,12.06
2018-10-01T02:13:57.658Z,12.06
2018-10-01T02:14:57.707Z,12.06
2018-10-01T02:15:57.648Z,12
2018-10-01T02:16:57.655Z,12.06
2018-10-01T02:17:57.656Z,12.06
2018-10-01T02:18:57.681Z,12.06
2018-10-01T02:19:57.701Z,12.06
2018-10-01T02:20:57.665Z,12.06
2018-10-01T02:21:57.642Z,12.06
2018-10-01T02:22:57.640Z,12.06
2018-10-01T02:23:57.666Z,12.13
2018-10-01T02:24:57.692Z,12.06
2018-10-01T02:25:57.749Z,12.06
2018-10-01T02:26:57.746Z,12.06
2018-10-01T02:27:57.758Z,12.06
2018-10-01T02:28:57.682Z,12
2018-10-01T02:29:57.720Z,12.06
2018-10-01T02:30:57.730Z,12.06
2018-10-01T02:31:57.672Z,12
2018-10-01T02:32:57.641Z,12.06
2018-10-01T02:33:57.648Z,12.06
2018-10-01T02:34:57.900Z,12.06
2018-10-01T02:35:57.678Z,12.06
2018-10-01T02:36:57.684Z,12.06
2018-10-01T02:37:57.648Z,12.06
2018-10-01T02:38:57.665Z,12.06
2018-10-01T02:39:57.663Z,12.06
2018-10-01T02:40:57.661Z,12.06
2018-10-01T02:41:57.610Z,12.06
2018-10-01T02:42:57.648Z,12.06
2018-10-01T02:43:57.579Z,12.13
2018-10-01T02:44:57.614Z,12
2018-10-01T02:45:57.826Z,12.06
2018-10-01T02:46:57.872Z,12.06
2018-10-01T02:47:57.631Z,12
2018-10-01T02:48:57.895Z,12
2018-10-01T02:49:58.045Z,12
2018-10-01T02:50:57.656Z,12
2018-10-01T02:51:57.803Z,12
2018-10-01T02:52:57.693Z,11.94
2018-10-01T02:53:57.654Z,12
2018-10-01T02:54:57.706Z,11.94
2018-10-01T02:55:58.125Z,11.94
2018-10-01T02:56:57.668Z,11.94
2018-10-01T02:57:57.653Z,11.94
2018-10-01T02:58:57.782Z,11.94
2018-10-01T02:59:57.637Z,11.94
2018-10-01T03:00:57.697Z,11.94
2018-10-01T03:01:57.618Z,11.94
2018-10-01T03:02:57.604Z,11.94
2018-10-01T03:03:57.609Z,11.94
2018-10-01T03:04:57.998Z,12
2018-10-01T03:05:57.640Z,11.94
2018-10-01T03:06:57.600Z,11.88
2018-10-01T03:07:57.674Z,11.94
2018-10-01T03:08:57.803Z,11.88
2018-10-01T03:09:57.672Z,11.88
2018-10-01T03:10:57.575Z,11.88
2018-10-01T03:11:58.795Z,11.88
2018-10-01T03:12:57.575Z,11.81
2018-10-01T03:13:57.585Z,11.75
2018-10-01T03:14:57.638Z,11.81
2018-10-01T03:15:57.625Z,11.75
2018-10-01T03:16:57.703Z,11.81
2018-10-01T03:17:57.570Z,11.81
2018-10-01T03:18:57.627Z,11.75
2018-10-01T03:19:57.606Z,11.75
2018-10-01T03:20:57.596Z,11.75
2018-10-01T03:21:57.606Z,11.75
2018-10-01T03:22:57.720Z,11.69
2018-10-01T03:23:57.669Z,11.75
2018-10-01T03:24:57.821Z,11.69
2018-10-01T03:25:57.569Z,11.75
2018-10-01T03:26:57.583Z,11.75
2018-10-01T03:27:57.610Z,11.69
2018-10-01T03:28:57.613Z,11.69
2018-10-01T03:29:57.559Z,11.69
2018-10-01T03:30:57.582Z,11.63
2018-10-01T03:31:57.610Z,11.63
2018-10-01T03:32:57.591Z,11.63
2018-10-01T03:33:57.585Z,11.63
2018-10-01T03:34:57.523Z,11.56
2018-10-01T03:35:57.588Z,11.56
2018-10-01T03:36:57.573Z,11.5
2018-10-01T03:37:57.610Z,11.5
2018-10-01T03:38:57.562Z,11.56
2018-10-01T03:39:58.041Z,11.56
2018-10-01T03:40:57.530Z,11.5
2018-10-01T03:41:57.542Z,11.56
2018-10-01T03:42:57.646Z,11.5
2018-10-01T03:43:57.586Z,11.56
2018-10-01T03:44:57.571Z,11.56
2018-10-01T03:45:57.571Z,11.56
2018-10-01T03:46:57.611Z,11.56
2018-10-01T03:47:57.622Z,11.56
2018-10-01T03:48:57.521Z,11.56
2018-10-01T03:49:57.620Z,11.56
2018-10-01T03:50:58.002Z,11.5
2018-10-01T03:51:57.540Z,11.56
2018-10-01T03:52:57.618Z,11.56
2018-10-01T03:53:57.548Z,11.56
2018-10-01T03:54:57.726Z,11.56
2018-10-01T03:55:57.605Z,11.56
2018-10-01T03:56:57.553Z,11.56
2018-10-01T03:57:57.553Z,11.56
2018-10-01T03:58:57.506Z,11.56
2018-10-01T03:59:57.757Z,11.5
2018-10-01T04:00:57.523Z,11.5
2018-10-01T04:01:57.618Z,11.5
2018-10-01T04:02:57.951Z,11.5
2018-10-01T04:03:57.719Z,11.44
2018-10-01T04:04:57.496Z,11.5
2018-10-01T04:05:57.598Z,11.5
2018-10-01T04:06:57.501Z,11.44
2018-10-01T04:07:57.516Z,11.5
2018-10-01T04:08:58.291Z,11.44
2018-10-01T04:09:57.604Z,11.44
2018-10-01T04:10:57.503Z,11.44
2018-10-01T04:11:57.776Z,11.44
2018-10-01T04:12:57.599Z,11.44
2018-10-01T04:13:57.493Z,11.44
2018-10-01T04:14:57.868Z,11.44
2018-10-01T04:15:57.486Z,11.38
2018-10-01T04:16:57.519Z,11.44
2018-10-01T04:17:57.560Z,11.44
2018-10-01T04:18:57.465Z,11.44
2018-10-01T04:19:57.535Z,11.38
2018-10-01T04:20:57.533Z,11.44
2018-10-01T04:21:57.505Z,11.44
2018-10-01T04:22:57.488Z,11.38
2018-10-01T04:23:57.565Z,11.44
2018-10-01T04:24:57.579Z,11.38
2018-10-01T04:25:57.476Z,11.44
2018-10-01T04:26:57.596Z,11.38
2018-10-01T04:27:57.555Z,11.38
2018-10-01T04:28:57.632Z,11.31
2018-10-01T04:29:57.498Z,11.31
2018-10-01T04:30:57.676Z,11.31
2018-10-01T04:31:57.628Z,11.31
2018-10-01T04:32:57.564Z,11.25
2018-10-01T04:33:57.541Z,11.25
2018-10-01T04:34:57.711Z,11.25
2018-10-01T04:35:57.485Z,11.25
2018-10-01T04:36:57.591Z,11.31
2018-10-01T04:37:57.528Z,11.31
2018-10-01T04:38:57.445Z,11.31
2018-10-01T04:39:57.518Z,11.31
2018-10-01T04:40:57.744Z,11.25
2018-10-01T04:41:57.756Z,11.31
2018-10-01T04:42:57.567Z,11.31
2018-10-01T04:43:58.466Z,11.31
2018-10-01T04:44:57.851Z,11.31
2018-10-01T04:45:57.565Z,11.25
2018-10-01T04:46:57.462Z,11.31
2018-10-01T04:47:57.775Z,11.25
2018-10-01T04:48:57.570Z,11.31
2018-10-01T04:49:57.480Z,11.25
2018-10-01T04:50:57.500Z,11.31
2018-10-01T04:51:57.496Z,11.25
2018-10-01T04:52:57.439Z,11.25
2018-10-01T04:53:57.486Z,11.25
2018-10-01T04:54:57.444Z,11.25
2018-10-01T04:55:57.487Z,11.25
2018-10-01T04:56:57.596Z,11.25
2018-10-01T04:57:58.013Z,11.25
2018-10-01T04:58:57.513Z,11.25
2018-10-01T04:59:57.445Z,11.25
2018-10-01T05:00:57.480Z,11.25
2018-10-01T05:01:57.527Z,11.25
2018-10-01T05:02:57.467Z,11.25
2018-10-01T05:03:57.650Z,11.19
2018-10-01T05:04:57.454Z,11.25
2018-10-01T05:05:57.814Z,11.19
2018-10-01T05:06:57.473Z,11.25
2018-10-01T05:07:57.435Z,11.19
2018-10-01T05:08:57.435Z,11.19
2018-10-01T05:09:57.430Z,11.25
2018-10-01T05:10:57.626Z,11.19
2018-10-01T05:11:57.426Z,11.25
2018-10-01T05:12:58.570Z,11.19
2018-10-01T05:13:57.657Z,11.25
2018-10-01T05:14:57.422Z,11.25
2018-10-01T05:15:57.521Z,11.25
2018-10-01T05:16:57.598Z,11.25
2018-10-01T05:17:57.414Z,11.25
2018-10-01T05:18:57.548Z,11.25
2018-10-01T05:19:57.563Z,11.25
2018-10-01T05:21:57.728Z,11.25
2018-10-01T05:22:57.389Z,11.25
2018-10-01T05:23:57.385Z,11.25
2018-10-01T05:24:57.496Z,11.25
2018-10-01T05:25:57.481Z,11.25
2018-10-01T05:26:57.842Z,11.19
2018-10-01T05:27:57.394Z,11.25
2018-10-01T05:28:57.401Z,11.25
2018-10-01T05:29:57.583Z,11.25
2018-10-01T05:30:57.679Z,11.25
2018-10-01T05:31:57.389Z,11.19
2018-10-01T05:32:57.576Z,11.19
2018-10-01T05:33:57.417Z,11.19
2018-10-01T05:34:57.700Z,11.19
2018-10-01T05:35:57.382Z,11.19
2018-10-01T05:36:57.673Z,11.19
2018-10-01T05:37:58.578Z,11.19
2018-10-01T05:38:57.495Z,11.19
2018-10-01T05:39:57.363Z,11.19
2018-10-01T05:40:57.429Z,11.12
2018-10-01T05:41:57.546Z,11.19
2018-10-01T05:42:57.350Z,11.12
2018-10-01T05:43:57.437Z,11.12
2018-10-01T05:44:57.415Z,11.12
2018-10-01T05:45:57.397Z,11.12
2018-10-01T05:46:57.434Z,11.12
2018-10-01T05:47:57.489Z,11.12
2018-10-01T05:48:57.621Z,11.06
2018-10-01T05:49:57.376Z,11.06
2018-10-01T05:50:57.518Z,11.06
2018-10-01T05:51:57.607Z,11.06
2018-10-01T05:52:57.404Z,11.06
2018-10-01T05:53:57.342Z,11.06
2018-10-01T05:54:57.829Z,11.06
2018-10-01T05:55:57.358Z,11.06
2018-10-01T05:56:57.400Z,11
2018-10-01T05:57:57.929Z,11
2018-10-01T05:58:57.505Z,11
2018-10-01T05:59:57.358Z,11.06
2018-10-01T06:00:57.407Z,11
2018-10-01T06:01:57.358Z,11
2018-10-01T06:02:57.580Z,11
2018-10-01T06:03:57.339Z,11
2018-10-01T06:04:57.597Z,11
2018-10-01T06:05:57.363Z,10.94
2018-10-01T06:06:57.344Z,11
2018-10-01T06:07:57.384Z,10.94
2018-10-01T06:08:57.372Z,11
2018-10-01T06:09:57.475Z,10.94
2018-10-01T06:10:57.464Z,11
2018-10-01T06:11:58.039Z,11
2018-10-01T06:12:57.438Z,11
2018-10-01T06:13:57.320Z,11
2018-10-01T06:14:57.374Z,11
2018-10-01T06:15:57.324Z,10.94
2018-10-01T06:16:57.325Z,10.94
2018-10-01T06:17:57.359Z,10.94
2018-10-01T06:18:57.346Z,10.88
2018-10-01T06:19:57.328Z,10.88
2018-10-01T06:20:57.370Z,10.88
2018-10-01T06:21:57.425Z,10.81
2018-10-01T06:22:57.309Z,10.81
2018-10-01T06:23:57.293Z,10.81
2018-10-01T06:24:57.803Z,10.81
2018-10-01T06:25:57.719Z,10.81
2018-10-01T06:26:57.293Z,10.81
2018-10-01T06:27:57.291Z,10.88
2018-10-01T06:28:57.363Z,10.88
2018-10-01T06:29:57.364Z,10.88
2018-10-01T06:30:57.401Z,10.88
2018-10-01T06:31:57.691Z,10.88
2018-10-01T06:32:59.533Z,10.81
2018-10-01T06:33:57.276Z,10.81
2018-10-01T06:34:57.381Z,10.88
2018-10-01T06:35:58.143Z,10.88
2018-10-01T06:36:57.309Z,10.88
2018-10-01T06:37:57.816Z,10.88
2018-10-01T06:38:57.723Z,10.94
2018-10-01T06:40:57.382Z,10.94
2018-10-01T06:41:58.330Z,11
2018-10-01T06:42:57.367Z,11
2018-10-01T06:43:57.338Z,11
2018-10-01T06:44:57.343Z,10.94
2018-10-01T06:45:57.443Z,11
2018-10-01T06:46:57.714Z,11
2018-10-01T06:47:57.313Z,11
2018-10-01T06:48:57.535Z,10.94
2018-10-01T06:49:57.334Z,11
2018-10-01T06:50:58.208Z,11
2018-10-01T06:51:57.271Z,11.06
2018-10-01T06:52:57.356Z,11.06
2018-10-01T06:53:57.530Z,11.06
2018-10-01T06:54:57.380Z,11.12
2018-10-01T06:55:57.339Z,11.12
2018-10-01T06:56:57.324Z,11.12
2018-10-01T06:57:57.341Z,11.06
2018-10-01T06:58:57.409Z,11.12
2018-10-01T06:59:57.263Z,11.12
2018-10-01T07:00:57.323Z,11.12
2018-10-01T07:01:57.592Z,11.12
2018-10-01T07:02:57.243Z,11.06
2018-10-01T07:03:57.282Z,11.12
2018-10-01T07:04:57.293Z,11.12
2018-10-01T07:05:59.302Z,11.19
2018-10-01T07:06:57.277Z,11.19
2018-10-01T07:07:57.313Z,11.19
2018-10-01T07:08:57.292Z,11.19
2018-10-01T07:09:57.274Z,11.19
2018-10-01T07:10:57.648Z,11.19
2018-10-01T07:11:57.244Z,11.19
2018-10-01T07:12:57.294Z,11.25
2018-10-01T07:13:57.506Z,11.25
2018-10-01T07:14:57.242Z,11.19
2018-10-01T07:15:57.297Z,11.19
2018-10-01T07:16:57.847Z,11.19
2018-10-01T07:17:57.354Z,11.25
2018-10-01T07:18:57.372Z,11.19
2018-10-01T07:19:57.300Z,11.25
2018-10-01T07:20:57.316Z,11.25
2018-10-01T07:21:57.281Z,11.31
2018-10-01T07:22:58.263Z,11.31
2018-10-01T07:23:57.297Z,11.25
2018-10-01T07:24:57.268Z,11.25
2018-10-01T07:25:57.269Z,11.31
2018-10-01T07:26:57.384Z,11.31
2018-10-01T07:27:57.259Z,11.31
2018-10-01T07:28:57.293Z,11.31
2018-10-01T07:29:57.580Z,11.38
2018-10-01T07:30:57.279Z,11.31
2018-10-01T07:31:57.413Z,11.31
2018-10-01T07:32:57.286Z,11.31
2018-10-01T07:33:57.248Z,11.31
2018-10-01T07:34:57.192Z,11.25
2018-10-01T07:35:57.330Z,11.31
2018-10-01T07:36:57.192Z,11.31
2018-10-01T07:37:57.318Z,11.31
2018-10-01T07:38:57.863Z,11.31
2018-10-01T07:39:57.213Z,11.31
2018-10-01T07:40:57.280Z,11.38
2018-10-01T07:41:57.248Z,11.31
2018-10-01T07:42:57.195Z,11.38
2018-10-01T07:43:57.225Z,11.31
2018-10-01T07:44:58.270Z,11.38
2018-10-01T07:45:57.507Z,11.38
2018-10-01T07:46:57.306Z,11.31
2018-10-01T07:47:57.257Z,11.31
2018-10-01T07:48:57.410Z,11.31
2018-10-01T07:49:57.192Z,11.31
2018-10-01T07:50:58.567Z,11.31
2018-10-01T07:51:57.284Z,11.31
2018-10-01T07:52:57.334Z,11.31
2018-10-01T07:53:57.187Z,11.38
2018-10-01T07:54:57.212Z,11.38
2018-10-01T07:55:57.201Z,11.38
2018-10-01T07:56:57.491Z,11.38
2018-10-01T07:57:57.471Z,11.44
2018-10-01T07:58:57.217Z,11.38
2018-10-01T07:59:59.884Z,11.38
2018-10-01T08:00:57.204Z,11.44
2018-10-01T08:01:57.517Z,11.44
2018-10-01T08:02:57.264Z,11.44
2018-10-01T08:03:57.253Z,11.44
2018-10-01T08:04:57.203Z,11.44
2018-10-01T08:05:57.181Z,11.44
2018-10-01T08:06:57.203Z,11.38
2018-10-01T08:07:57.627Z,11.44
2018-10-01T08:08:57.417Z,11.38
2018-10-01T08:09:57.222Z,11.38
2018-10-01T08:10:57.219Z,11.38
2018-10-01T08:11:57.273Z,11.38
2018-10-01T08:12:57.244Z,11.38
2018-10-01T08:13:57.698Z,11.44
2018-10-01T08:14:57.177Z,11.5
2018-10-01T08:15:57.926Z,11.5
2018-10-01T08:16:57.251Z,11.5
2018-10-01T08:17:57.300Z,11.56
2018-10-01T08:18:57.128Z,11.5
2018-10-01T08:19:57.628Z,11.56
2018-10-01T08:20:57.172Z,11.56
2018-10-01T08:21:57.187Z,11.56
2018-10-01T08:22:57.225Z,11.56
2018-10-01T08:23:57.132Z,11.63
2018-10-01T08:24:57.186Z,11.63
2018-10-01T08:25:57.540Z,11.63
2018-10-01T08:26:57.120Z,11.63
2018-10-01T08:27:57.544Z,11.63
2018-10-01T08:28:57.558Z,11.69
2018-10-01T08:29:59.551Z,11.69
2018-10-01T08:30:57.304Z,11.69
2018-10-01T08:31:57.628Z,11.69
2018-10-01T08:32:57.348Z,11.69
2018-10-01T08:33:57.305Z,11.75
2018-10-01T08:34:57.853Z,11.75
2018-10-01T08:35:57.238Z,11.81
2018-10-01T08:36:57.211Z,11.75
2018-10-01T08:37:57.753Z,11.88
2018-10-01T08:38:57.721Z,11.88
2018-10-01T08:39:57.112Z,11.88
2018-10-01T08:40:57.460Z,11.94
2018-10-01T08:41:57.194Z,11.94
2018-10-01T08:42:57.124Z,11.94
2018-10-01T08:43:57.486Z,11.94
2018-10-01T08:44:57.161Z,12
2018-10-01T08:45:57.174Z,12
2018-10-01T08:46:57.474Z,12
2018-10-01T08:47:57.136Z,12.06
2018-10-01T08:48:57.174Z,12.06
2018-10-01T08:49:57.359Z,12.06
2018-10-01T08:50:57.096Z,12.13
2018-10-01T08:51:57.528Z,12.19
2018-10-01T08:52:57.310Z,12.19
2018-10-01T08:53:57.139Z,12.19
2018-10-01T08:54:57.218Z,12.19
2018-10-01T08:55:57.435Z,12.19
2018-10-01T08:56:57.129Z,12.25
2018-10-01T08:57:57.577Z,12.19
2018-10-01T08:58:57.521Z,12.31
2018-10-01T08:59:57.090Z,12.31
2018-10-01T09:00:57.397Z,12.31
2018-10-01T09:01:57.401Z,12.37
2018-10-01T09:02:57.102Z,12.37
2018-10-01T09:03:57.155Z,12.44
2018-10-01T09:04:57.433Z,12.37
2018-10-01T09:05:57.073Z,12.44
2018-10-01T09:06:58.324Z,12.44
2018-10-01T09:07:57.395Z,12.5
2018-10-01T09:08:57.068Z,12.63
2018-10-01T09:09:57.363Z,12.63
2018-10-01T09:10:57.321Z,12.63
2018-10-01T09:11:57.137Z,12.69
2018-10-01T09:12:57.176Z,12.69
2018-10-01T09:13:57.443Z,12.75
2018-10-01T09:14:57.641Z,12.75
2018-10-01T09:15:57.067Z,12.75
2018-10-01T09:16:57.429Z,12.75
2018-10-01T09:17:57.068Z,12.81
2018-10-01T09:18:57.144Z,12.81
2018-10-01T09:19:57.334Z,12.81
2018-10-01T09:20:57.049Z,12.88
2018-10-01T09:21:57.440Z,12.94
2018-10-01T09:22:57.697Z,12.94
2018-10-01T09:23:57.071Z,13
2018-10-01T09:24:57.166Z,13.06
2018-10-01T09:25:57.323Z,13.06
2018-10-01T09:26:57.179Z,13.19
2018-10-01T09:27:57.134Z,13.13
2018-10-01T09:28:57.551Z,13.25
2018-10-01T09:29:57.144Z,13.25
2018-10-01T09:30:57.638Z,13.25
2018-10-01T09:31:57.356Z,13.31
2018-10-01T09:32:57.132Z,13.31
2018-10-01T09:33:57.261Z,13.38
2018-10-01T09:35:57.503Z,13.5
2018-10-01T09:36:57.117Z,13.56
2018-10-01T09:37:57.381Z,13.62
2018-10-01T09:38:57.854Z,13.69
2018-10-01T09:39:57.445Z,13.69
2018-10-01T09:40:57.170Z,13.69
2018-10-01T09:41:57.475Z,13.69
2018-10-01T09:42:57.221Z,13.69
2018-10-01T09:43:57.412Z,13.81
2018-10-01T09:44:57.041Z,13.69
2018-10-01T09:45:57.634Z,13.62
2018-10-01T09:46:57.250Z,13.56
2018-10-01T09:47:59.611Z,13.56
2018-10-01T09:48:57.081Z,13.56
2018-10-01T09:49:57.455Z,13.5
2018-10-01T09:50:57.159Z,13.56
2018-10-01T09:51:58.576Z,13.56
2018-10-01T09:52:59.515Z,13.56
2018-10-01T09:53:57.119Z,13.56
2018-10-01T09:54:58.438Z,13.56
2018-10-01T09:55:57.987Z,13.56
2018-10-01T09:56:57.358Z,13.56
2018-10-01T09:57:58.628Z,13.56
2018-10-01T09:58:57.134Z,13.56
2018-10-01T09:59:57.015Z,13.56
2018-10-01T10:00:57.378Z,13.5
2018-10-01T10:01:57.573Z,13.56
2018-10-01T10:02:57.288Z,13.56
2018-10-01T10:03:57.750Z,13.5
2018-10-01T10:04:57.947Z,13.5
2018-10-01T10:05:57.237Z,13.5
2018-10-01T10:06:57.213Z,13.5
2018-10-01T10:07:57.919Z,13.5
2018-10-01T10:08:57.152Z,13.5
2018-10-01T10:09:57.471Z,13.56
2018-10-01T10:10:57.277Z,13.62
2018-10-01T10:11:57.235Z,13.69
2018-10-01T10:12:57.140Z,13.69
2018-10-01T10:13:57.470Z,13.75
2018-10-01T10:14:57.258Z,13.75
2018-10-01T10:15:57.265Z,13.75
2018-10-01T10:16:57.914Z,13.81
2018-10-01T10:17:57.623Z,13.81
2018-10-01T10:18:57.137Z,13.88
2018-10-01T10:19:57.594Z,13.81
2018-10-01T10:20:57.320Z,13.81
2018-10-01T10:21:57.520Z,13.75
2018-10-01T10:22:57.214Z,13.75
2018-10-01T10:23:57.424Z,13.75
2018-10-01T10:24:57.362Z,13.75
2018-10-01T10:25:57.545Z,13.81
2018-10-01T10:26:57.131Z,13.81
2018-10-01T10:27:57.317Z,13.88
2018-10-01T10:28:57.284Z,13.88
2018-10-01T10:29:57.265Z,14
2018-10-01T10:30:57.001Z,14
2018-10-01T10:31:57.312Z,14.06
2018-10-01T10:32:56.964Z,14.06
2018-10-01T10:33:57.374Z,14.19
2018-10-01T10:34:56.965Z,14.25
2018-10-01T10:35:56.988Z,14.25
2018-10-01T10:36:57.305Z,14.25
2018-10-01T10:37:57.310Z,14.31
2018-10-01T10:38:57.203Z,14.31
2018-10-01T10:39:56.977Z,14.44
2018-10-01T10:40:56.940Z,14.38
2018-10-01T10:41:58.072Z,14.44
2018-10-01T10:42:56.958Z,14.56
2018-10-01T10:43:57.365Z,14.63
2018-10-01T10:44:57.058Z,14.56
2018-10-01T10:45:57.196Z,14.63
2018-10-01T10:46:56.931Z,14.63
2018-10-01T10:47:57.566Z,14.56
2018-10-01T10:48:56.940Z,14.5
2018-10-01T10:50:57.333Z,14.44
2018-10-01T10:51:56.999Z,14.44
2018-10-01T10:52:57.315Z,14.44
2018-10-01T10:53:57.307Z,14.38
2018-10-01T10:54:57.243Z,14.44
2018-10-01T10:55:57.238Z,14.38
2018-10-01T10:56:57.656Z,14.44
2018-10-01T10:57:57.012Z,14.5
2018-10-01T10:58:56.999Z,14.56
2018-10-01T10:59:57.035Z,14.63
2018-10-01T11:00:57.191Z,14.63
2018-10-01T11:01:57.054Z,14.56
2018-10-01T11:02:56.892Z,14.63
2018-10-01T11:03:57.271Z,14.63
2018-10-01T11:04:56.873Z,14.63
2018-10-01T11:05:57.313Z,14.63
2018-10-01T11:06:57.299Z,14.63
2018-10-01T11:07:57.238Z,14.63
2018-10-01T11:08:56.973Z,14.56
2018-10-01T11:09:56.999Z,14.56
2018-10-01T11:10:56.906Z,14.56
2018-10-01T11:11:57.075Z,14.56
2018-10-01T11:12:57.102Z,14.56
2018-10-01T11:13:57.845Z,14.63
2018-10-01T11:14:59.061Z,14.5
2018-10-01T11:15:56.906Z,14.5
2018-10-01T11:16:57.287Z,14.56
2018-10-01T11:17:58.693Z,14.56
2018-10-01T11:18:58.964Z,14.63
2018-10-01T11:19:57.907Z,14.63
2018-10-01T11:20:58.134Z,14.63
2018-10-01T11:21:57.795Z,14.63
2018-10-01T11:22:57.473Z,14.63
2018-10-01T11:23:57.263Z,14.63
2018-10-01T11:24:56.966Z,14.63
2018-10-01T11:25:56.962Z,14.63
2018-10-01T11:26:57.819Z,14.63
2018-10-01T11:27:57.085Z,14.63
2018-10-01T11:28:57.739Z,14.63
2018-10-01T11:29:57.738Z,14.63
2018-10-01T11:30:56.923Z,14.63
2018-10-01T11:31:58.222Z,14.56
2018-10-01T11:32:57.713Z,14.5
2018-10-01T11:34:58.148Z,14.5
2018-10-01T11:35:56.925Z,14.38
2018-10-01T11:36:56.896Z,14.44
2018-10-01T11:37:56.935Z,14.44
2018-10-01T11:38:57.441Z,14.44
2018-10-01T11:39:57.162Z,14.44
2018-10-01T11:40:56.974Z,14.44
2018-10-01T11:41:56.994Z,14.44
2018-10-01T11:42:57.020Z,14.44
2018-10-01T11:43:57.205Z,14.44
2018-10-01T11:44:57.499Z,14.44
2018-10-01T11:45:57.030Z,14.38
2018-10-01T11:46:56.867Z,14.31
2018-10-01T11:47:56.947Z,14.25
2018-10-01T11:48:56.836Z,14.31
2018-10-01T11:49:56.924Z,14.31
2018-10-01T11:50:57.429Z,14.31
2018-10-01T11:51:57.006Z,14.31
2018-10-01T11:52:57.018Z,14.25
2018-10-01T11:53:57.172Z,14.31
2018-10-01T11:54:56.816Z,14.25
2018-10-01T11:55:57.353Z,14.31
2018-10-01T11:56:57.363Z,14.31
2018-10-01T11:57:56.903Z,14.25
2018-10-01T11:58:56.978Z,14.31
2018-10-01T11:59:56.906Z,14.31
2018-10-01T12:00:56.862Z,14.38
2018-10-01T12:01:56.876Z,14.38
2018-10-01T12:02:57.292Z,14.31
2018-10-01T12:05:56.867Z,14.25
2018-10-01T12:06:56.833Z,14.25
2018-10-01T12:07:56.961Z,14.25
2018-10-01T12:08:57.196Z,14.19
2018-10-01T12:09:58.559Z,14.19
2018-10-01T12:10:56.942Z,14.25
2018-10-01T12:11:56.943Z,14.25
2018-10-01T12:12:57.030Z,14.25
2018-10-01T12:13:57.235Z,14.31
2018-10-01T12:14:57.424Z,14.31
2018-10-01T12:15:59.248Z,14.25
2018-10-01T12:16:56.959Z,14.25
2018-10-01T12:17:56.881Z,14.25
2018-10-01T12:18:56.936Z,14.25
2018-10-01T12:19:56.931Z,14.25
2018-10-01T12:20:57.415Z,14.19
2018-10-01T12:21:57.281Z,14.19
2018-10-01T12:22:57.051Z,14.25
2018-10-01T12:24:56.827Z,14.31
2018-10-01T12:25:56.943Z,14.25
2018-10-01T12:26:57.236Z,14.25
2018-10-01T12:27:57.106Z,14.25
2018-10-01T12:28:57.580Z,14.25
2018-10-01T12:29:57.059Z,14.25
2018-10-01T12:30:56.966Z,14.25
2018-10-01T12:31:56.848Z,14.25
2018-10-01T12:32:57.320Z,14.25
2018-10-01T12:33:56.917Z,14.25
2018-10-01T12:34:57.161Z,14.25
2018-10-01T12:35:56.810Z,14.25
2018-10-01T12:36:57.128Z,14.25
2018-10-01T12:37:57.341Z,14.19
2018-10-01T12:38:57.360Z,14.25
2018-10-01T12:39:57.152Z,14.25
2018-10-01T12:41:56.750Z,14.25
2018-10-01T12:42:57.718Z,14.25
2018-10-01T12:43:57.148Z,14.25
2018-10-01T12:44:57.394Z,14.31
2018-10-01T12:45:56.862Z,14.31
2018-10-01T12:46:56.836Z,14.38
2018-10-01T12:47:56.811Z,14.31
2018-10-01T12:48:56.786Z,14.31
2018-10-01T12:49:56.819Z,14.31
2018-10-01T12:50:57.607Z,14.31
2018-10-01T12:51:56.964Z,14.31
2018-10-01T12:52:57.008Z,14.38
2018-10-01T12:53:56.875Z,14.38
2018-10-01T12:54:56.829Z,14.38
2018-10-01T12:55:56.935Z,14.44
2018-10-01T12:56:57.260Z,14.44
2018-10-01T12:57:56.740Z,14.44
2018-10-01T12:58:57.075Z,14.5
2018-10-01T12:59:56.792Z,14.5
2018-10-01T13:00:56.797Z,14.5
2018-10-01T13:01:57.008Z,14.5
2018-10-01T13:02:57.081Z,14.56
2018-10-01T13:03:56.756Z,14.56
2018-10-01T13:04:57.298Z,14.63
2018-10-01T13:05:56.699Z,14.69
2018-10-01T13:06:56.835Z,14.75
2018-10-01T13:07:57.022Z,14.81
2018-10-01T13:08:56.967Z,14.87